ADDS METAR Data INFO
IDs: Format: Raw Decoded Include TAF

Data at: 0154 UTC 19 Jul 2018

KERV 190135Z AUTO 14005KT 10SM CLR 33/15 A2994 RMK AO2 T03310152
KERV 190115Z AUTO 15006KT 10SM CLR 34/14 A2993 RMK AO2 T03390140
KERV 190055Z AUTO 16007KT 10SM CLR 36/13 A2993 RMK AO2 T03600134
KERV 190035Z AUTO 17007KT 10SM CLR 36/12 A2993 RMK AO2 T03600115
KERV 190015Z AUTO 19008KT 10SM CLR 36/10 A2993 RMK AO2 T03640100
KERV 182355Z AUTO 17005KT 10SM CLR 37/07 A2994 RMK AO2 T03720065 10373 20339
KERV 182335Z AUTO 16006KT 10SM CLR 37/07 A2994 RMK AO2 T03730072
KERV 182315Z AUTO 19006KT 10SM CLR 37/07 A2994 RMK AO2 T03730074
KERV 182255Z AUTO 13003KT 10SM CLR 37/06 A2995 RMK AO2 T03730060
KERV 182235Z AUTO 15008KT 10SM CLR 37/08 A2996 RMK AO2 T03730081
KERV 182215Z AUTO 20006KT 10SM CLR 37/10 A2996 RMK AO2 T03730097
KERV 182155Z AUTO 15004KT 10SM CLR 37/09 A2996 RMK AO2 T03730093
KERV 182135Z AUTO 19009KT 10SM CLR 37/12 A2997 RMK AO2 T03730121
KERV 182115Z AUTO 18007KT 10SM CLR 37/12 A2998 RMK AO2 T03700118
KERV 182055Z AUTO 21008KT 10SM CLR 36/14 A2998 RMK AO2 T03620135
KERV 182035Z AUTO 20007KT 10SM CLR 37/14 A2999 RMK AO2 T03700139
KERV 182015Z AUTO 19008G19KT 160V220 10SM CLR 36/14 A3000 RMK AO2 T03640137
KERV 181955Z AUTO 17008G16KT 10SM CLR 36/14 A3000 RMK AO2 T03600138
KERV 181935Z AUTO 17009KT 10SM CLR 36/15 A3001 RMK AO2 T03600146
KERV 181915Z AUTO 18007KT 10SM CLR 36/16 A3002 RMK AO2 T03600155
KERV 181855Z AUTO 20003KT 10SM CLR 36/16 A3002 RMK AO2 T03600161
KERV 181835Z AUTO 20009KT 10SM CLR 35/16 A3003 RMK AO2 T03450160
KERV 181815Z AUTO 24005KT 10SM CLR 35/16 A3004 RMK AO2 T03530162
KERV 181755Z AUTO 22008KT 10SM CLR 34/16 A3005 RMK AO2 T03380157 10338 20233
KERV 181735Z AUTO 22007KT 10SM CLR 34/17 A3005 RMK AO2 T03350167
KERV 181715Z AUTO 22008KT 10SM CLR 33/17 A3006 RMK AO2 T03310167
KERV 181655Z AUTO 21008KT 10SM CLR 33/17 A3006 RMK AO2 T03310171
KERV 181635Z AUTO 20008KT 10SM CLR 33/18 A3007 RMK AO2 T03310176
KERV 181615Z AUTO 21009KT 160V220 10SM CLR 32/18 A3006 RMK AO2 T03170179
KERV 181555Z AUTO 22008KT 10SM CLR 30/18 A3006 RMK AO2 T03020180
KERV 181535Z AUTO 21006KT 10SM CLR 30/19 A3007 RMK AO2 T02990191
KERV 181515Z AUTO 22008KT 10SM CLR 29/19 A3008 RMK AO2 T02910193
KERV 181455Z AUTO 21005KT 10SM CLR 29/21 A3009 RMK AO2 T02850207
KERV 181435Z AUTO 21006KT 10SM CLR 28/21 A3009 RMK AO2 T02750209
KERV 181415Z AUTO 19006KT 10SM CLR 26/22 A3008 RMK AO2 T02620218
KERV 181355Z AUTO 19005KT 7SM CLR 26/22 A3009 RMK AO2 T02570224
KERV 181335Z AUTO 20005KT 7SM SCT007 25/22 A3009 RMK AO2 T02470220
KERV 181315Z AUTO 19006KT 7SM OVC007 25/23 A3009 RMK AO2 T02470225
KERV 181255Z AUTO 18005KT 7SM OVC007 23/22 A3009 RMK AO2 T02340216
KERV 181235Z AUTO 16003KT 7SM OVC009 23/22 A3008 RMK AO2 T02330215
KERV 181215Z AUTO 18004KT 7SM OVC009 23/22 A3008 RMK AO2 T02330215
KERV 181155Z AUTO 18005KT 7SM OVC009 23/22 A3008 RMK AO2 T02330215 10261 20233
KERV 181135Z AUTO 17005KT 7SM OVC009 23/22 A3008 RMK AO2 T02330215
KERV 181115Z AUTO 17005KT 10SM OVC011 23/21 A3008 RMK AO2 T02330213
KERV 181055Z AUTO 16006KT 10SM OVC011 25/23 A3008 RMK AO2 T02450225
KERV 181035Z AUTO 17005KT 10SM OVC013 25/23 A3008 RMK AO2 T02470225
KERV 181015Z AUTO 18005KT 10SM OVC011 25/23 A3008 RMK AO2 T02470225
KERV 180955Z AUTO 18006KT 10SM BKN011 OVC014 25/23 A3008 RMK AO2 T02470226
KERV 180935Z AUTO 17005KT 10SM OVC011 25/23 A3008 RMK AO2 T02470227
KERV 180915Z AUTO 16005KT 10SM OVC011 25/23 A3008 RMK AO2 T02470227
KERV 180855Z AUTO 16006KT 10SM BKN011 25/23 A3008 RMK AO2 T02470226
KERV 180835Z AUTO 17006KT 10SM BKN011 25/23 A3008 RMK AO2 T02470226
KERV 180815Z AUTO 16006KT 10SM SCT011 25/23 A3008 RMK AO2 T02470225
KERV 180755Z AUTO 16006KT 10SM SCT013 25/23 A3008 RMK AO2 T02470225
KERV 180735Z AUTO 16005KT 10SM SCT013 25/22 A3008 RMK AO2 T02470222
KERV 180715Z AUTO 16005KT 10SM CLR 25/22 A3008 RMK AO2 T02470220
KERV 180655Z AUTO 17005KT 10SM CLR 25/22 A3007 RMK AO2 T02470215
KERV 180635Z AUTO 15008KT 10SM CLR 26/22 A3007 RMK AO2 T02550216
KERV 180615Z AUTO 16006KT 10SM CLR 26/21 A3006 RMK AO2 T02550210
KERV 180555Z AUTO 15007KT 10SM CLR 26/21 A3007 RMK AO2 T02610206 10360 20255 403600220
KERV 180535Z AUTO 15006KT 10SM CLR 26/19 A3007 RMK AO2 T02610193
KERV 180515Z AUTO 14005KT 10SM CLR 26/18 A3007 RMK AO2 T02610176
KERV 180455Z AUTO 15005KT 10SM CLR 26/16 A3006 RMK AO2 T02610163
KERV 180435Z AUTO 13004KT 10SM CLR 26/15 A3006 RMK AO2 T02620152
KERV 180415Z AUTO 14004KT 10SM CLR 26/16 A3005 RMK AO2 T02610156
KERV 180355Z AUTO 13004KT 10SM CLR 27/16 A3005 RMK AO2 T02690155
KERV 180335Z AUTO 14003KT 10SM CLR 26/15 A3005 RMK AO2 T02640154
KERV 180315Z AUTO 12003KT 10SM CLR 27/16 A3005 RMK AO2 T02740157
KERV 180255Z AUTO 12004KT 10SM CLR 28/15 A3004 RMK AO2 T02820154
KERV 180235Z AUTO 12003KT 10SM CLR 29/15 A3004 RMK AO2 T02900148
KERV 180215Z AUTO 12004KT 10SM CLR 29/14 A3004 RMK AO2 T02930142
KERV 180155Z AUTO 12004KT 10SM CLR 30/14 A3004 RMK AO2 T03030140
KERV 180135Z AUTO 14005KT 10SM CLR 32/15 A3004 RMK AO2 T03160147
KERV 180115Z AUTO 15007KT 10SM CLR 33/14 A3004 RMK AO2 T03310144
KERV 180055Z AUTO 17007KT 10SM CLR 33/13 A3003 RMK AO2 T03320133
KERV 180035Z AUTO 13008KT 10SM CLR 35/14 A3003 RMK AO2 T03450140
KERV 180015Z AUTO 17007KT 10SM CLR 35/13 A3003 RMK AO2 T03500133
KERV 172355Z AUTO 19009KT 10SM CLR 36/13 A3003 RMK AO2 T03600133 10360 20331
KERV 172335Z AUTO 16008KT 10SM CLR 36/12 A3003 RMK AO2 T03600119
KERV 172315Z AUTO 16010KT 10SM CLR 36/12 A3004 RMK AO2 T03600116
KERV 172255Z AUTO 13008KT 10SM CLR 36/12 A3004 RMK AO2 T03600115
KERV 172235Z AUTO 15009KT 130V190 10SM CLR 36/11 A3005 RMK AO2 T03600114
KERV 172215Z AUTO 19005KT 10SM CLR 36/11 A3005 RMK AO2 T03600110
KERV 172155Z AUTO 18008KT 10SM CLR 36/12 A3005 RMK AO2 T03600117
KERV 172135Z AUTO 19007KT 10SM CLR 36/12 A3005 RMK AO2 T03600117
KERV 172115Z AUTO 14006KT 10SM CLR 36/10 A3006 RMK AO2 T03600095
KERV 172055Z AUTO 17005KT 10SM CLR 36/13 A3007 RMK AO2 T03600131
KERV 172035Z AUTO 13006KT 10SM CLR 36/13 A3007 RMK AO2 T03600126
KERV 172015Z AUTO 16006KT 10SM CLR 36/14 A3008 RMK AO2 T03600138
KERV 171955Z AUTO 13004KT 10SM CLR 36/14 A3009 RMK AO2 T03600136
KERV 171935Z AUTO 18009G15KT 10SM CLR 36/12 A3010 RMK AO2 T03600119
KERV 171915Z AUTO 19007KT 10SM CLR 35/14 A3010 RMK AO2 T03450138
KERV 171855Z AUTO 17008KT 10SM CLR 34/14 A3011 RMK AO2 T03440144
KERV 171835Z AUTO 18003KT 10SM CLR 34/15 A3011 RMK AO2 T03370145
KERV 171815Z AUTO 21008KT 140V230 10SM CLR 33/15 A3012 RMK AO2 T03310152
KERV 171755Z AUTO 19007KT 10SM CLR 33/15 A3012 RMK AO2 T03310152 10331 20220
KERV 171735Z AUTO 21007KT 10SM CLR 32/17 A3012 RMK AO2 T03190166
KERV 171715Z AUTO 16006KT 10SM CLR 32/18 A3013 RMK AO2 T03170180
KERV 171655Z AUTO 26005KT 10SM CLR 30/18 A3013 RMK AO2 T03020182
KERV 171635Z AUTO 18007KT 140V230 10SM CLR 30/19 A3014 RMK AO2 T02950191
KERV 171615Z AUTO 16004KT 10SM CLR 29/20 A3014 RMK AO2 T02890195
KERV 171555Z AUTO 16005KT 10SM CLR 28/20 A3014 RMK AO2 T02800201
KERV 171535Z AUTO 21006KT 10SM CLR 28/20 A3015 RMK AO2 T02750204
KERV 171515Z AUTO 17007KT 10SM CLR 28/21 A3015 RMK AO2 T02750206
KERV 171455Z AUTO 18008KT 10SM CLR 26/20 A3015 RMK AO2 T02610199
KERV 171435Z AUTO 20007KT 10SM CLR 26/21 A3014 RMK AO2 T02610205
KERV 171415Z AUTO 17007KT 10SM SCT012 25/21 A3015 RMK AO2 T02470206
KERV 171355Z AUTO 17007KT 10SM SCT012 25/21 A3015 RMK AO2 T02470213